Time;durP1;ratioP1;P1;durP2;ratioP2;P2;SDS_P1;SDS_P2;PMS_P1;PMS_P2;Temp;Humidity;BMP_temperature;BMP_pressure;BME280_temperature;BME280_humidity;BME280_pressure;Samples;Min_cycle;Max_cycle;Signal;HPM_P1;HPM_P2
2021/09/20 00:02:05;;;;;;;8.52;4.18;;;;;;;-148.22;100.00;64452.44;4914902;29;20031;-76
2021/09/20 00:04:30;;;;;;;6.78;4.20;;;;;;;-148.22;100.00;64452.44;4916973;29;20558;-76
2021/09/20 00:06:55;;;;;;;7.93;4.38;;;;;;;-148.22;100.00;64452.44;4912790;29;20488;-75
2021/09/20 00:09:21;;;;;;;7.13;4.43;;;;;;;-148.22;100.00;64452.44;4928441;29;20138;-76
2021/09/20 00:11:46;;;;;;;6.63;3.65;;;;;;;-148.22;100.00;64452.44;4928355;29;20015;-77
2021/09/20 00:14:12;;;;;;;7.80;4.43;;;;;;;-148.22;100.00;64452.44;4927616;29;20026;-76
2021/09/20 00:16:37;;;;;;;7.82;4.53;;;;;;;-148.22;100.00;64452.44;4899148;29;20435;-75
2021/09/20 00:19:03;;;;;;;6.15;4.15;;;;;;;-148.22;100.00;64452.44;4924313;29;20495;-76
2021/09/20 00:21:28;;;;;;;12.85;5.57;;;;;;;-148.22;100.00;64452.44;4905550;29;20039;-75
2021/09/20 00:23:53;;;;;;;6.43;3.97;;;;;;;-148.22;100.00;64452.44;4894921;29;20032;-76
2021/09/20 00:26:19;;;;;;;7.28;4.65;;;;;;;-148.22;100.00;64452.44;4904999;29;20024;-76
2021/09/20 00:28:44;;;;;;;7.25;4.13;;;;;;;-148.22;100.00;64452.44;4911441;29;20035;-75
2021/09/20 00:31:09;;;;;;;7.68;4.25;;;;;;;-148.22;100.00;64452.44;4925218;29;20043;-76
2021/09/20 00:33:35;;;;;;;6.95;4.65;;;;;;;-148.22;100.00;64452.44;4911712;29;20035;-75
2021/09/20 00:36:01;;;;;;;7.18;4.20;;;;;;;-148.22;100.00;64452.44;4911570;29;20388;-75
2021/09/20 00:38:26;;;;;;;6.00;4.30;;;;;;;-148.22;100.00;64452.44;4912640;29;20114;-75
2021/09/20 00:40:52;;;;;;;6.65;4.18;;;;;;;-148.22;100.00;64452.44;4902847;29;20787;-75
2021/09/20 00:43:17;;;;;;;6.82;4.55;;;;;;;-148.22;100.00;64452.44;4930700;29;20125;-76
2021/09/20 00:45:43;;;;;;;8.05;5.50;;;;;;;-148.22;100.00;64452.44;4928670;29;20053;-75
2021/09/20 00:48:08;;;;;;;7.45;4.10;;;;;;;-148.22;100.00;64452.44;4929893;28;20403;-75
2021/09/20 00:50:34;;;;;;;8.93;4.80;;;;;;;-148.22;100.00;64452.44;4939961;29;20039;-75
2021/09/20 00:52:59;;;;;;;7.93;4.53;;;;;;;-148.22;100.00;64452.44;4911156;29;20038;-75
2021/09/20 00:55:24;;;;;;;7.78;4.20;;;;;;;-148.22;100.00;64452.44;4927530;29;20570;-75
2021/09/20 00:57:50;;;;;;;8.75;4.30;;;;;;;-148.22;100.00;64452.44;4927458;29;20039;-75
2021/09/20 01:00:16;;;;;;;7.63;4.32;;;;;;;-148.22;100.00;64452.44;4926520;29;20043;-75
2021/09/20 01:02:42;;;;;;;6.63;4.22;;;;;;;-148.22;100.00;64452.44;4910000;29;20039;-75
2021/09/20 01:05:08;;;;;;;6.65;4.30;;;;;;;-148.22;100.00;64452.44;4932332;29;20530;-75
2021/09/20 01:07:34;;;;;;;6.75;4.20;;;;;;;-148.22;100.00;64452.44;4927562;29;20027;-75
2021/09/20 01:10:00;;;;;;;8.73;4.15;;;;;;;-148.22;100.00;64452.44;4911511;29;20042;-76
2021/09/20 01:12:26;;;;;;;8.15;4.50;;;;;;;-148.22;100.00;64452.44;4917058;29;20627;-76
2021/09/20 01:14:51;;;;;;;7.53;4.10;;;;;;;-148.22;100.00;64452.44;4921010;29;20034;-76
2021/09/20 01:17:16;;;;;;;8.13;4.72;;;;;;;-148.22;100.00;64452.44;4910155;29;20032;-76
2021/09/20 01:19:42;;;;;;;6.75;4.75;;;;;;;-148.22;100.00;64452.44;4911185;29;20406;-75
2021/09/20 01:22:14;;;;;;;6.18;3.90;;;;;;;-148.22;100.00;64452.44;4942899;29;20032;-76
2021/09/20 01:24:41;;;;;;;6.43;4.15;;;;;;;-148.22;100.00;64452.44;4930183;29;20027;-76
2021/09/20 01:27:08;;;;;;;6.68;4.60;;;;;;;-148.22;100.00;64452.44;4899708;29;20399;-76
2021/09/20 01:29:34;;;;;;;6.43;4.57;;;;;;;-148.22;100.00;64452.44;4933324;29;20107;-76
2021/09/20 01:32:01;;;;;;;8.48;4.90;;;;;;;-148.22;100.00;64452.44;4929447;29;20351;-76
2021/09/20 01:34:26;;;;;;;7.40;3.88;;;;;;;-148.22;100.00;64452.44;4931151;29;20062;-76
2021/09/20 01:36:52;;;;;;;8.05;4.75;;;;;;;-148.22;100.00;64452.44;4926081;29;20047;-76
2021/09/20 01:39:19;;;;;;;7.53;4.05;;;;;;;-148.22;100.00;64452.44;4927232;29;20027;-75
2021/09/20 01:41:45;;;;;;;7.32;4.35;;;;;;;-148.22;100.00;64452.44;4910146;29;20036;-77
2021/09/20 01:44:11;;;;;;;8.23;4.03;;;;;;;-148.22;100.00;64452.44;4926499;29;20055;-76
2021/09/20 01:46:36;;;;;;;7.10;3.70;;;;;;;-148.22;100.00;64452.44;4941620;28;20034;-76
2021/09/20 01:49:02;;;;;;;6.35;3.90;;;;;;;-148.22;100.00;64452.44;4913667;29;20058;-76
2021/09/20 01:51:27;;;;;;;5.72;3.80;;;;;;;-148.22;100.00;64452.44;4913703;29;20027;-76
2021/09/20 01:53:53;;;;;;;5.93;3.88;;;;;;;-148.22;100.00;64452.44;4946688;29;20038;-76
2021/09/20 01:56:19;;;;;;;6.25;4.22;;;;;;;-148.22;100.00;64452.44;4925921;29;20031;-75
2021/09/20 01:58:44;;;;;;;6.47;3.90;;;;;;;-148.22;100.00;64452.44;4913684;29;20031;-75
2021/09/20 02:01:09;;;;;;;7.47;4.20;;;;;;;-148.22;100.00;64452.44;4929168;29;20118;-76
2021/09/20 02:03:35;;;;;;;6.78;4.28;;;;;;;-148.22;100.00;64452.44;4922567;29;20415;-75
2021/09/20 02:06:00;;;;;;;7.15;4.72;;;;;;;-148.22;100.00;64452.44;4910125;29;20435;-75
2021/09/20 02:08:25;;;;;;;8.75;4.88;;;;;;;-148.22;100.00;64452.44;4910627;29;20365;-76
2021/09/20 02:10:51;;;;;;;6.57;4.00;;;;;;;-148.22;100.00;64452.44;4910742;29;20034;-75
2021/09/20 02:13:16;;;;;;;6.60;4.82;;;;;;;-148.22;100.00;64452.44;4923500;29;20159;-75
2021/09/20 02:15:41;;;;;;;6.35;4.35;;;;;;;-148.22;100.00;64452.44;4915148;29;20143;-75
2021/09/20 02:18:07;;;;;;;6.53;4.20;;;;;;;-148.22;100.00;64452.44;4909978;29;20078;-75
2021/09/20 02:20:32;;;;;;;6.88;5.10;;;;;;;-148.22;100.00;64452.44;4918645;29;20028;-75
2021/09/20 02:22:58;;;;;;;6.63;4.45;;;;;;;-148.22;100.00;64452.44;4903926;29;20031;-75
2021/09/20 02:25:23;;;;;;;7.30;4.47;;;;;;;-148.22;100.00;64452.44;4912626;29;20055;-75
2021/09/20 02:27:49;;;;;;;6.40;4.57;;;;;;;-148.22;100.00;64452.44;4910524;29;20070;-75
2021/09/20 02:30:14;;;;;;;7.32;4.47;;;;;;;-148.22;100.00;64452.44;4907656;29;20034;-75
2021/09/20 02:32:40;;;;;;;6.50;4.38;;;;;;;-148.22;100.00;64452.44;4928426;29;20102;-75
2021/09/20 02:35:06;;;;;;;7.68;5.32;;;;;;;-148.22;100.00;64452.44;4913611;29;20031;-75
2021/09/20 02:37:32;;;;;;;8.43;5.30;;;;;;;-148.22;100.00;64452.44;4927438;29;20035;-76
2021/09/20 02:39:57;;;;;;;7.57;4.88;;;;;;;-148.22;100.00;64452.44;4910944;29;20027;-75
2021/09/20 02:42:23;;;;;;;9.90;5.25;;;;;;;-148.22;100.00;64452.44;4929627;29;20075;-75
2021/09/20 02:44:48;;;;;;;10.70;5.38;;;;;;;-148.22;100.00;64452.44;4913203;29;20060;-75
2021/09/20 02:47:14;;;;;;;7.65;4.80;;;;;;;-148.22;100.00;64452.44;4912893;29;20046;-76
2021/09/20 02:49:39;;;;;;;8.07;5.22;;;;;;;-148.22;100.00;64452.44;4913555;29;20035;-75
2021/09/20 02:52:05;;;;;;;7.70;5.03;;;;;;;-148.22;100.00;64452.44;4930221;29;20030;-75
2021/09/20 02:54:30;;;;;;;8.63;4.88;;;;;;;-148.22;100.00;64452.44;4931261;29;20507;-75
2021/09/20 02:56:55;;;;;;;9.40;5.63;;;;;;;-148.22;100.00;64452.44;4930222;29;20028;-75
2021/09/20 02:59:21;;;;;;;8.98;5.45;;;;;;;-148.22;100.00;64452.44;4930048;29;20098;-75
2021/09/20 03:01:46;;;;;;;9.23;5.53;;;;;;;-148.22;100.00;64452.44;4934184;29;20036;-75
2021/09/20 03:04:11;;;;;;;7.50;5.63;;;;;;;-148.22;100.00;64452.44;4954617;29;20051;-75
2021/09/20 03:06:37;;;;;;;7.65;5.07;;;;;;;-148.22;100.00;64452.44;4956754;29;20027;-75
2021/09/20 03:09:02;;;;;;;8.30;4.88;;;;;;;-148.22;100.00;64452.44;4938152;29;20079;-75
2021/09/20 03:11:29;;;;;;;7.93;5.47;;;;;;;-148.22;100.00;64452.44;4957621;29;20023;-75
2021/09/20 03:13:55;;;;;;;8.70;5.28;;;;;;;-148.22;100.00;64452.44;4931545;29;20574;-75
2021/09/20 03:16:20;;;;;;;8.45;5.55;;;;;;;-148.22;100.00;64452.44;4916552;29;20127;-75
2021/09/20 03:18:45;;;;;;;8.80;5.20;;;;;;;-148.22;100.00;64452.44;4910741;29;20719;-75
2021/09/20 03:21:11;;;;;;;7.65;5.10;;;;;;;-148.22;100.00;64452.44;4932325;29;20060;-75
2021/09/20 03:23:36;;;;;;;10.27;5.60;;;;;;;-148.22;100.00;64452.44;4917994;29;20023;-75
2021/09/20 03:26:02;;;;;;;7.15;4.35;;;;;;;-148.22;100.00;64452.44;4944172;29;20023;-75
2021/09/20 03:28:27;;;;;;;8.93;5.38;;;;;;;-148.22;100.00;64452.44;4913062;29;20024;-75
2021/09/20 03:30:52;;;;;;;9.23;5.10;;;;;;;-148.22;100.00;64452.44;4931393;29;20035;-75
2021/09/20 03:33:18;;;;;;;7.60;5.03;;;;;;;-148.22;100.00;64452.44;4931692;28;20036;-75
2021/09/20 03:35:43;;;;;;;8.02;5.13;;;;;;;-148.22;100.00;64452.44;4917154;29;20048;-75
2021/09/20 03:38:09;;;;;;;8.63;5.30;;;;;;;-148.22;100.00;64452.44;4915560;29;20042;-75
2021/09/20 03:40:34;;;;;;;7.70;5.30;;;;;;;-148.22;100.00;64452.44;4883835;29;20042;-75
2021/09/20 03:42:59;;;;;;;9.60;5.63;;;;;;;-148.22;100.00;64452.44;4939478;28;20038;-75
2021/09/20 03:45:25;;;;;;;7.95;5.22;;;;;;;-148.22;100.00;64452.44;4926797;29;20114;-75
2021/09/20 03:47:50;;;;;;;8.45;5.65;;;;;;;-148.22;100.00;64452.44;4912877;29;20751;-75
2021/09/20 03:50:16;;;;;;;9.32;5.53;;;;;;;-148.22;100.00;64452.44;4912580;29;20063;-75
2021/09/20 03:52:42;;;;;;;7.57;5.13;;;;;;;-148.22;100.00;64452.44;4914857;29;20487;-75
2021/09/20 03:55:08;;;;;;;8.55;4.68;;;;;;;-148.22;100.00;64452.44;4915285;29;20025;-76
2021/09/20 03:57:34;;;;;;;9.55;5.28;;;;;;;-148.22;100.00;64452.44;4931616;29;20085;-76
2021/09/20 03:59:59;;;;;;;8.30;5.07;;;;;;;-148.22;100.00;64452.44;4915700;29;20031;-76
2021/09/20 04:02:26;;;;;;;8.65;5.38;;;;;;;-148.22;100.00;64452.44;4932220;29;20443;-76
2021/09/20 04:04:51;;;;;;;8.43;5.50;;;;;;;-148.22;100.00;64452.44;4915582;29;20615;-76
2021/09/20 04:07:16;;;;;;;11.48;5.18;;;;;;;-148.22;100.00;64452.44;4913680;29;20079;-75
2021/09/20 04:09:42;;;;;;;7.57;5.10;;;;;;;-148.22;100.00;64452.44;4933705;28;20034;-75
2021/09/20 04:12:09;;;;;;;8.82;5.20;;;;;;;-148.22;100.00;64452.44;4921492;29;20022;-75
2021/09/20 04:14:36;;;;;;;7.32;4.82;;;;;;;-148.22;100.00;64452.44;4946853;29;20027;-75
2021/09/20 04:17:01;;;;;;;7.30;4.78;;;;;;;-148.22;100.00;64452.44;4910133;29;20028;-75
2021/09/20 04:19:26;;;;;;;9.65;5.53;;;;;;;-148.22;100.00;64452.44;4925045;29;20027;-75
2021/09/20 04:21:52;;;;;;;7.20;5.10;;;;;;;-148.22;100.00;64452.44;4930601;29;20028;-75
2021/09/20 04:24:17;;;;;;;7.55;5.05;;;;;;;-148.22;100.00;64452.44;4911931;29;20463;-75
2021/09/20 04:26:42;;;;;;;8.57;5.15;;;;;;;-148.22;100.00;64452.44;4928622;29;20115;-76
2021/09/20 04:29:08;;;;;;;7.57;4.90;;;;;;;-148.22;100.00;64452.44;4934380;29;20082;-75
2021/09/20 04:31:33;;;;;;;8.75;5.22;;;;;;;-148.22;100.00;64452.44;4947746;28;20050;-76
2021/09/20 04:33:58;;;;;;;10.10;5.40;;;;;;;-148.22;100.00;64452.44;4928195;29;20034;-76
2021/09/20 04:36:24;;;;;;;8.00;5.28;;;;;;;-148.22;100.00;64452.44;4914227;29;20023;-76
2021/09/20 04:38:49;;;;;;;7.18;4.75;;;;;;;-148.22;100.00;64452.44;4931633;29;20031;-76
2021/09/20 04:41:15;;;;;;;8.88;5.35;;;;;;;-148.22;100.00;64452.44;4925453;29;20067;-76
2021/09/20 04:43:40;;;;;;;7.13;4.88;;;;;;;-148.22;100.00;64452.44;4927308;28;20031;-76
2021/09/20 04:46:05;;;;;;;8.40;5.10;;;;;;;-148.22;100.00;64452.44;4925882;29;20482;-76
2021/09/20 04:48:31;;;;;;;10.60;5.40;;;;;;;-148.22;100.00;64452.44;4896104;29;20071;-75
2021/09/20 04:50:57;;;;;;;7.43;5.03;;;;;;;-148.22;100.00;64452.44;4915604;29;20632;-76
2021/09/20 04:53:23;;;;;;;7.82;4.80;;;;;;;-148.22;100.00;64452.44;4929465;29;20292;-76
2021/09/20 04:55:54;;;;;;;8.57;5.32;;;;;;;-148.22;100.00;64452.44;4929398;29;20563;-75
2021/09/20 04:58:20;;;;;;;7.47;4.90;;;;;;;-148.22;100.00;64452.44;4929480;29;20028;-76
2021/09/20 05:00:45;;;;;;;8.40;4.88;;;;;;;-148.22;100.00;64452.44;4922424;29;20031;-76
2021/09/20 05:03:10;;;;;;;8.27;5.20;;;;;;;-148.22;100.00;64452.44;4917899;29;20099;-76
2021/09/20 05:05:36;;;;;;;7.35;4.57;;;;;;;-148.22;100.00;64452.44;4935040;29;20031;-76
2021/09/20 05:08:01;;;;;;;7.30;4.88;;;;;;;-148.22;100.00;64452.44;4927369;29;20028;-76
2021/09/20 05:10:27;;;;;;;8.60;5.10;;;;;;;-148.22;100.00;64452.44;4928453;29;20035;-76
2021/09/20 05:12:53;;;;;;;8.18;5.00;;;;;;;-148.22;100.00;64452.44;4906650;29;20498;-76
2021/09/20 05:15:18;;;;;;;10.25;5.13;;;;;;;-148.22;100.00;64452.44;4931000;29;20031;-76
2021/09/20 05:17:44;;;;;;;10.38;5.32;;;;;;;-148.22;100.00;64452.44;4910316;29;20039;-75
2021/09/20 05:20:11;;;;;;;8.93;5.47;;;;;;;-148.22;100.00;64452.44;4911027;29;20126;-76
2021/09/20 05:22:36;;;;;;;8.98;5.22;;;;;;;-148.22;100.00;64452.44;4909823;29;20806;-76
2021/09/20 05:25:02;;;;;;;12.43;5.72;;;;;;;-148.22;100.00;64452.44;4916244;29;20043;-76
2021/09/20 05:27:28;;;;;;;9.27;5.80;;;;;;;-148.22;100.00;64452.44;4925018;29;20063;-75
2021/09/20 05:29:58;;;;;;;7.82;5.07;;;;;;;-148.22;100.00;64452.44;4911537;29;20086;-75
2021/09/20 05:32:24;;;;;;;9.38;4.97;;;;;;;-148.22;100.00;64452.44;4913742;29;20108;-75
2021/09/20 05:34:49;;;;;;;8.65;5.55;;;;;;;-148.22;100.00;64452.44;4927158;29;20050;-75
2021/09/20 05:37:15;;;;;;;8.38;4.85;;;;;;;-148.22;100.00;64452.44;4920054;29;20071;-76
2021/09/20 05:39:40;;;;;;;10.23;5.50;;;;;;;-148.22;100.00;64452.44;4905600;29;20032;-75
2021/09/20 05:42:05;;;;;;;9.68;5.88;;;;;;;-148.22;100.00;64452.44;4920463;29;20114;-75
2021/09/20 05:44:31;;;;;;;13.25;6.03;;;;;;;-148.22;100.00;64452.44;4899936;29;20055;-76
2021/09/20 05:46:56;;;;;;;10.95;5.43;;;;;;;-148.22;100.00;64452.44;4924575;29;20097;-75
2021/09/20 05:49:21;;;;;;;9.88;5.75;;;;;;;-148.22;100.00;64452.44;4919713;29;20055;-75
2021/09/20 05:51:47;;;;;;;9.40;6.18;;;;;;;-148.22;100.00;64452.44;4938314;29;20027;-76
2021/09/20 05:54:12;;;;;;;9.90;6.43;;;;;;;-148.22;100.00;64452.44;4908956;29;20300;-75
2021/09/20 05:56:37;;;;;;;9.38;6.28;;;;;;;-148.22;100.00;64452.44;4908137;29;20044;-75
2021/09/20 05:59:03;;;;;;;10.07;6.28;;;;;;;-148.22;100.00;64452.44;4908516;29;20035;-75
2021/09/20 06:01:28;;;;;;;10.57;6.18;;;;;;;-148.22;100.00;64452.44;4937311;29;20126;-75
2021/09/20 06:03:54;;;;;;;11.73;6.30;;;;;;;-148.22;100.00;64452.44;4913516;29;20066;-75
2021/09/20 06:06:19;;;;;;;12.80;6.78;;;;;;;-148.22;100.00;64452.44;4914829;29;20487;-75
2021/09/20 06:08:44;;;;;;;10.75;6.72;;;;;;;-148.22;100.00;64452.44;4905616;29;20031;-75
2021/09/20 06:11:11;;;;;;;9.48;6.68;;;;;;;-148.22;100.00;64452.44;4908610;29;21105;-75
2021/09/20 06:13:37;;;;;;;9.05;6.32;;;;;;;-148.22;100.00;64452.44;4905729;29;20059;-76
2021/09/20 06:16:03;;;;;;;11.00;6.90;;;;;;;-148.22;100.00;64452.44;4913121;29;20049;-76
2021/09/20 06:18:28;;;;;;;10.68;7.32;;;;;;;-148.22;100.00;64452.44;4942367;29;20031;-75
2021/09/20 06:20:54;;;;;;;10.85;6.93;;;;;;;-148.22;100.00;64452.44;4914068;29;20046;-75
2021/09/20 06:23:19;;;;;;;10.98;6.93;;;;;;;-148.22;100.00;64452.44;4913815;29;20039;-75
2021/09/20 06:25:45;;;;;;;11.27;7.43;;;;;;;-148.22;100.00;64452.44;4916739;29;20396;-75
2021/09/20 06:28:10;;;;;;;10.43;6.50;;;;;;;-148.22;100.00;64452.44;4901308;29;20027;-75
2021/09/20 06:30:35;;;;;;;11.32;6.97;;;;;;;-148.22;100.00;64452.44;4894808;29;20110;-74
2021/09/20 06:33:01;;;;;;;12.13;6.78;;;;;;;-148.22;100.00;64452.44;4920387;29;20150;-75
2021/09/20 06:35:26;;;;;;;14.10;7.05;;;;;;;-148.22;100.00;64452.44;4915507;29;20067;-75
2021/09/20 06:37:51;;;;;;;12.95;7.13;;;;;;;-148.22;100.00;64452.44;4926483;29;20081;-75
2021/09/20 06:40:17;;;;;;;12.15;7.72;;;;;;;-148.22;100.00;64452.44;4926155;29;20055;-75
2021/09/20 06:42:42;;;;;;;10.55;7.43;;;;;;;-148.22;100.00;64452.44;4931558;29;20024;-75
2021/09/20 06:45:08;;;;;;;9.77;6.40;;;;;;;-148.22;100.00;64452.44;4933405;29;20027;-75
2021/09/20 06:47:33;;;;;;;12.48;7.35;;;;;;;-148.22;100.00;64452.44;4949811;29;20058;-75
2021/09/20 06:49:59;;;;;;;10.82;6.32;;;;;;;-148.22;100.00;64452.44;4917090;29;20023;-75
2021/09/20 06:52:24;;;;;;;9.30;6.28;;;;;;;-148.22;100.00;64452.44;4914122;29;20085;-75
2021/09/20 06:54:50;;;;;;;9.65;5.60;;;;;;;-148.22;100.00;64452.44;4897893;29;20038;-75
2021/09/20 06:57:15;;;;;;;8.60;5.85;;;;;;;-148.22;100.00;64452.44;4925750;29;20031;-75
2021/09/20 06:59:40;;;;;;;8.48;5.88;;;;;;;-148.22;100.00;64452.44;4937695;29;20111;-75
2021/09/20 07:02:06;;;;;;;10.90;6.32;;;;;;;-148.22;100.00;64452.44;4914345;29;20058;-76
2021/09/20 07:04:34;;;;;;;9.32;6.15;;;;;;;-148.22;100.00;64452.44;4929347;29;20028;-75
2021/09/20 07:06:59;;;;;;;10.18;6.20;;;;;;;-148.22;100.00;64452.44;4895812;29;20530;-75
2021/09/20 07:09:25;;;;;;;8.32;5.88;;;;;;;-148.22;100.00;64452.44;4911873;29;20358;-75
2021/09/20 07:11:50;;;;;;;12.25;6.03;;;;;;;-148.22;100.00;64452.44;4932562;29;20280;-75
2021/09/20 07:14:15;;;;;;;9.50;6.03;;;;;;;-148.22;100.00;64452.44;4937125;28;20106;-75
2021/09/20 07:16:41;;;;;;;9.50;6.05;;;;;;;-148.22;100.00;64452.44;4948080;29;20121;-75
2021/09/20 07:19:07;;;;;;;7.80;5.03;;;;;;;-148.22;100.00;64452.44;4920177;29;20086;-75
2021/09/20 07:21:32;;;;;;;8.13;5.63;;;;;;;-148.22;100.00;64452.44;4911488;29;20059;-75
2021/09/20 07:23:58;;;;;;;9.68;6.18;;;;;;;-148.22;100.00;64452.44;4927442;29;20122;-75
2021/09/20 07:26:26;;;;;;;11.77;5.82;;;;;;;-148.22;100.00;64452.44;4908868;29;20023;-75
2021/09/20 07:28:52;;;;;;;9.70;6.57;;;;;;;-148.22;100.00;64452.44;4915862;29;20035;-75
2021/09/20 07:31:17;;;;;;;11.10;7.57;;;;;;;-148.22;100.00;64452.44;4929052;29;20027;-75
2021/09/20 07:33:43;;;;;;;10.32;6.65;;;;;;;-148.22;100.00;64452.44;4926802;29;20589;-75
2021/09/20 07:36:09;;;;;;;9.95;5.97;;;;;;;-148.22;100.00;64452.44;4916411;29;20038;-76
2021/09/20 07:38:36;;;;;;;8.23;5.65;;;;;;;-148.22;100.00;64452.44;4910459;28;20538;-75
2021/09/20 07:41:02;;;;;;;8.07;5.63;;;;;;;-148.22;100.00;64452.44;4918266;29;20034;-75
2021/09/20 07:43:28;;;;;;;10.80;6.22;;;;;;;-148.22;100.00;64452.44;4907834;29;20081;-75
2021/09/20 07:45:53;;;;;;;11.55;7.30;;;;;;;-148.22;100.00;64452.44;4933963;28;20032;-76
2021/09/20 07:48:19;;;;;;;11.50;6.82;;;;;;;-148.22;100.00;64452.44;4922312;28;20537;-75
2021/09/20 07:50:44;;;;;;;10.85;6.97;;;;;;;-148.22;100.00;64452.44;4923921;29;20086;-76
2021/09/20 07:53:09;;;;;;;12.30;8.25;;;;;;;-148.22;100.00;64452.44;4913638;29;20070;-76
2021/09/20 07:55:35;;;;;;;11.52;7.20;;;;;;;-148.22;100.00;64452.44;4922550;29;20528;-75
2021/09/20 07:58:05;;;;;;;12.50;7.38;;;;;;;-148.22;100.00;64452.44;4929524;29;20234;-76
2021/09/20 08:00:32;;;;;;;10.77;6.15;;;;;;;-148.22;100.00;64452.44;4916459;29;20070;-76
2021/09/20 08:02:57;;;;;;;12.07;7.20;;;;;;;-148.22;100.00;64452.44;4923144;29;20032;-76
2021/09/20 08:05:23;;;;;;;9.35;6.10;;;;;;;-148.22;100.00;64452.44;4910568;29;20039;-75
2021/09/20 08:07:48;;;;;;;10.90;6.55;;;;;;;-148.22;100.00;64452.44;4910108;29;20059;-76
2021/09/20 08:10:14;;;;;;;11.63;6.38;;;;;;;-148.22;100.00;64452.44;4923117;29;20031;-76
2021/09/20 08:12:39;;;;;;;8.32;5.93;;;;;;;-148.22;100.00;64452.44;4914927;29;20506;-76
2021/09/20 08:15:05;;;;;;;9.90;6.32;;;;;;;-148.22;100.00;64452.44;4919487;29;20053;-76
2021/09/20 08:17:32;;;;;;;12.93;7.60;;;;;;;-148.22;100.00;64452.44;4896735;29;20046;-76
2021/09/20 08:19:59;;;;;;;11.35;7.00;;;;;;;-148.22;100.00;64452.44;4909628;29;20038;-76
2021/09/20 08:22:25;;;;;;;9.70;7.30;;;;;;;-148.22;100.00;64452.44;4923050;29;20521;-76
2021/09/20 08:24:50;;;;;;;11.43;7.35;;;;;;;-148.22;100.00;64452.44;4919538;29;20038;-76
2021/09/20 08:27:15;;;;;;;11.85;8.07;;;;;;;-148.22;100.00;64452.44;4929265;29;20027;-76
2021/09/20 08:29:41;;;;;;;12.98;7.82;;;;;;;-148.22;100.00;64452.44;4906434;29;20514;-76
2021/09/20 08:32:07;;;;;;;12.57;6.93;;;;;;;-148.22;100.00;64452.44;4925602;29;20031;-76
2021/09/20 08:34:34;;;;;;;12.40;7.15;;;;;;;-148.22;100.00;64452.44;4913772;29;20027;-76
2021/09/20 08:37:00;;;;;;;11.13;7.82;;;;;;;-148.22;100.00;64452.44;4910522;29;20329;-76
2021/09/20 08:39:26;;;;;;;10.50;6.43;;;;;;;-148.22;100.00;64452.44;4926593;29;20070;-75
2021/09/20 08:41:51;;;;;;;12.27;6.78;;;;;;;-148.22;100.00;64452.44;4911992;29;20053;-76
2021/09/20 08:44:18;;;;;;;11.45;6.78;;;;;;;-148.22;100.00;64452.44;4938425;29;20031;-75
2021/09/20 08:46:43;;;;;;;14.23;9.30;;;;;;;-148.22;100.00;64452.44;4913164;29;20027;-76
2021/09/20 08:49:09;;;;;;;13.82;8.85;;;;;;;-148.22;100.00;64452.44;4917587;29;20549;-75
2021/09/20 08:51:34;;;;;;;19.15;9.73;;;;;;;-148.22;100.00;64452.44;4955446;28;20026;-76
2021/09/20 08:54:00;;;;;;;12.90;7.63;;;;;;;-148.22;100.00;64452.44;4931099;29;20062;-76
2021/09/20 08:56:25;;;;;;;13.25;8.25;;;;;;;-148.22;100.00;64452.44;4912220;29;20058;-76
2021/09/20 08:58:51;;;;;;;13.05;8.40;;;;;;;-148.22;100.00;64452.44;4926474;29;20028;-76
2021/09/20 09:01:16;;;;;;;14.43;9.45;;;;;;;-148.22;100.00;64452.44;4924611;29;20035;-76
2021/09/20 09:03:42;;;;;;;15.45;9.32;;;;;;;-148.22;100.00;64452.44;4939915;29;20098;-76
2021/09/20 09:06:07;;;;;;;17.83;10.07;;;;;;;-148.22;100.00;64452.44;4895346;29;20411;-76
2021/09/20 09:08:38;;;;;;;15.27;9.38;;;;;;;-148.22;100.00;64452.44;4914545;28;20058;-76
2021/09/20 09:11:08;;;;;;;14.75;9.48;;;;;;;-148.22;100.00;64452.44;4895551;29;20035;-76
2021/09/20 09:13:39;;;;;;;13.32;9.05;;;;;;;-148.22;100.00;64452.44;4929308;29;20031;-76
2021/09/20 09:16:17;;;;;;;14.02;10.15;;;;;;;-148.22;100.00;64452.44;4916497;29;20459;-76
2021/09/20 09:18:57;;;;;;;13.88;8.48;;;;;;;-148.22;100.00;64452.44;4937350;28;20141;-76
2021/09/20 09:21:37;;;;;;;14.23;8.73;;;;;;;-148.22;100.00;64452.44;4915973;29;20047;-76
2021/09/20 09:24:05;;;;;;;13.57;9.15;;;;;;;-148.22;100.00;64452.44;4928775;29;20384;-76
2021/09/20 09:26:31;;;;;;;13.45;9.00;;;;;;;-148.22;100.00;64452.44;4911646;29;20538;-76
2021/09/20 09:29:08;;;;;;;15.98;10.13;;;;;;;-148.22;100.00;64452.44;4927192;29;20026;-76
2021/09/20 09:31:35;;;;;;;17.40;10.40;;;;;;;-148.22;100.00;64452.44;4910266;29;20083;-75
2021/09/20 09:34:14;;;;;;;13.75;9.60;;;;;;;-148.22;100.00;64452.44;4924343;29;20031;-76
2021/09/20 09:36:41;;;;;;;14.93;9.38;;;;;;;-148.22;100.00;64452.44;4913169;29;20058;-76
2021/09/20 09:39:07;;;;;;;14.98;9.52;;;;;;;-148.22;100.00;64452.44;4909050;28;20094;-76
2021/09/20 09:41:37;;;;;;;14.95;8.73;;;;;;;-148.22;100.00;64452.44;4917322;29;20494;-76
2021/09/20 09:44:04;;;;;;;14.13;9.60;;;;;;;-148.22;100.00;64452.44;4899821;29;20031;-76
2021/09/20 09:46:36;;;;;;;17.25;10.48;;;;;;;-148.22;100.00;64452.44;4908225;29;20122;-76
2021/09/20 09:49:13;;;;;;;17.40;10.43;;;;;;;-148.22;100.00;64452.44;4921887;29;20027;-76
2021/09/20 09:51:59;;;;;;;16.40;9.95;;;;;;;-148.22;100.00;64452.44;4915132;29;20738;-76
2021/09/20 09:54:35;;;;;;;15.98;9.88;;;;;;;-148.22;100.00;64452.44;4931292;29;20019;-76
2021/09/20 09:57:24;;;;;;;14.35;10.10;;;;;;;-148.22;100.00;64452.44;4917132;29;20063;-76
2021/09/20 09:59:58;;;;;;;13.32;8.35;;;;;;;-148.22;100.00;64452.44;4908934;29;20027;-76
2021/09/20 10:02:26;;;;;;;13.75;8.63;;;;;;;-148.22;100.00;64452.44;4926941;29;20082;-76
2021/09/20 10:04:58;;;;;;;15.55;9.48;;;;;;;-148.22;100.00;64452.44;4910570;29;20676;-76
2021/09/20 10:07:29;;;;;;;14.68;9.50;;;;;;;-148.22;100.00;64452.44;4909411;29;20065;-76
2021/09/20 10:09:56;;;;;;;14.40;9.52;;;;;;;-148.22;100.00;64452.44;4911233;29;20036;-76
2021/09/20 10:12:24;;;;;;;13.30;8.63;;;;;;;-148.22;100.00;64452.44;4927426;29;20035;-76
2021/09/20 10:14:51;;;;;;;12.85;8.30;;;;;;;-148.22;100.00;64452.44;4922773;29;20163;-76
2021/09/20 10:17:18;;;;;;;12.65;8.38;;;;;;;-148.22;100.00;64452.44;4904736;29;20046;-76
2021/09/20 10:19:45;;;;;;;15.32;9.98;;;;;;;-148.22;100.00;64452.44;4923048;29;20458;-76
2021/09/20 10:22:13;;;;;;;14.35;9.15;;;;;;;-148.22;100.00;64452.44;4893244;29;20043;-76
2021/09/20 10:24:38;;;;;;;13.13;8.70;;;;;;;-148.22;100.00;64452.44;4915308;29;20027;-76
2021/09/20 10:27:03;;;;;;;14.98;10.00;;;;;;;-148.22;100.00;64452.44;4916086;29;20372;-76
2021/09/20 10:29:29;;;;;;;13.10;9.18;;;;;;;-148.22;100.00;64452.44;4928297;29;20023;-76
2021/09/20 10:31:55;;;;;;;16.27;10.40;;;;;;;-148.22;100.00;64452.44;4911721;29;20035;-76
2021/09/20 10:34:20;;;;;;;14.73;9.13;;;;;;;-148.22;100.00;64452.44;4917175;29;20103;-76
2021/09/20 10:36:47;;;;;;;13.00;8.57;;;;;;;-148.22;100.00;64452.44;4913020;29;20027;-76
2021/09/20 10:39:13;;;;;;;15.98;9.35;;;;;;;-148.22;100.00;64452.44;4907963;29;20028;-76
2021/09/20 10:41:38;;;;;;;16.30;9.40;;;;;;;-148.22;100.00;64452.44;4898087;29;20034;-76
2021/09/20 10:44:04;;;;;;;16.02;9.60;;;;;;;-148.22;100.00;64452.44;4901702;29;20055;-76
2021/09/20 10:46:29;;;;;;;15.13;9.90;;;;;;;-148.22;100.00;64452.44;4942377;29;20100;-76
2021/09/20 10:48:58;;;;;;;13.50;8.93;;;;;;;-148.22;100.00;64452.44;4918423;29;20024;-76
2021/09/20 10:51:38;;;;;;;14.48;9.40;;;;;;;-148.22;100.00;64452.44;4906999;29;20039;-77
2021/09/20 10:54:11;;;;;;;31.60;11.35;;;;;;;-148.22;100.00;64452.44;4916805;29;20038;-76
2021/09/20 10:56:38;;;;;;;18.08;10.93;;;;;;;-148.22;100.00;64452.44;4944721;29;20027;-76
2021/09/20 10:59:05;;;;;;;14.43;9.55;;;;;;;-148.22;100.00;64452.44;4907261;29;20106;-76
2021/09/20 11:01:33;;;;;;;14.73;9.57;;;;;;;-148.22;100.00;64452.44;4927690;29;20437;-76